sensor_id;sensor_type;location;lat;lon;timestamp;temperature;humidity
24412;DHT22;12544;46.760;15.942;2022-09-29T00:00:32;14.00;99.90
24412;DHT22;12544;46.760;15.942;2022-09-29T00:02:57;13.90;99.90
24412;DHT22;12544;46.760;15.942;2022-09-29T00:05:23;13.90;99.90
24412;DHT22;12544;46.760;15.942;2022-09-29T00:07:48;14.00;99.90
24412;DHT22;12544;46.760;15.942;2022-09-29T00:10:14;14.00;99.90
24412;DHT22;12544;46.760;15.942;2022-09-29T00:12:39;13.90;99.90
24412;DHT22;12544;46.760;15.942;2022-09-29T00:15:05;13.90;99.90
24412;DHT22;12544;46.760;15.942;2022-09-29T00:17:31;13.90;99.90
24412;DHT22;12544;46.760;15.942;2022-09-29T00:19:57;13.90;99.90
24412;DHT22;12544;46.760;15.942;2022-09-29T00:22:23;13.90;99.90
24412;DHT22;12544;46.760;15.942;2022-09-29T00:24:49;13.90;99.90
24412;DHT22;12544;46.760;15.942;2022-09-29T00:27:15;13.90;99.90
24412;DHT22;12544;46.760;15.942;2022-09-29T00:29:41;13.90;99.90
24412;DHT22;12544;46.760;15.942;2022-09-29T00:32:06;13.90;99.90
24412;DHT22;12544;46.760;15.942;2022-09-29T00:34:32;14.00;99.90
24412;DHT22;12544;46.760;15.942;2022-09-29T00:36:57;13.90;99.90
24412;DHT22;12544;46.760;15.942;2022-09-29T00:39:23;13.90;99.90
24412;DHT22;12544;46.760;15.942;2022-09-29T00:41:49;13.90;99.90
24412;DHT22;12544;46.760;15.942;2022-09-29T00:51:41;13.90;99.90
24412;DHT22;12544;46.760;15.942;2022-09-29T00:54:10;13.90;99.90
24412;DHT22;12544;46.760;15.942;2022-09-29T00:56:35;13.80;99.90
24412;DHT22;12544;46.760;15.942;2022-09-29T00:59:13;13.90;99.90
24412;DHT22;12544;46.760;15.942;2022-09-29T01:01:41;13.90;99.90
24412;DHT22;12544;46.760;15.942;2022-09-29T01:04:10;13.90;99.90
24412;DHT22;12544;46.760;15.942;2022-09-29T01:06:39;13.90;99.90
24412;DHT22;12544;46.760;15.942;2022-09-29T01:09:10;14.00;99.90
24412;DHT22;12544;46.760;15.942;2022-09-29T01:11:38;14.00;99.90
24412;DHT22;12544;46.760;15.942;2022-09-29T01:14:05;14.00;99.90
24412;DHT22;12544;46.760;15.942;2022-09-29T01:16:32;14.10;99.90
24412;DHT22;12544;46.760;15.942;2022-09-29T01:18:59;14.10;99.90
24412;DHT22;12544;46.760;15.942;2022-09-29T01:21:40;14.10;99.90
24412;DHT22;12544;46.760;15.942;2022-09-29T01:27:00;14.20;99.90
24412;DHT22;12544;46.760;15.942;2022-09-29T01:37:27;14.10;99.90
24412;DHT22;12544;46.760;15.942;2022-09-29T01:40:01;14.10;99.90
24412;DHT22;12544;46.760;15.942;2022-09-29T01:42:29;14.10;99.90
24412;DHT22;12544;46.760;15.942;2022-09-29T01:44:59;14.00;99.90
24412;DHT22;12544;46.760;15.942;2022-09-29T01:47:28;14.00;99.90
24412;DHT22;12544;46.760;15.942;2022-09-29T01:49:57;14.00;99.90
24412;DHT22;12544;46.760;15.942;2022-09-29T01:52:39;14.00;99.90
24412;DHT22;12544;46.760;15.942;2022-09-29T01:55:07;14.00;99.90
24412;DHT22;12544;46.760;15.942;2022-09-29T01:57:36;14.00;99.90
24412;DHT22;12544;46.760;15.942;2022-09-29T02:00:04;14.00;99.90
24412;DHT22;12544;46.760;15.942;2022-09-29T02:02:39;14.00;99.90
24412;DHT22;12544;46.760;15.942;2022-09-29T02:05:08;13.90;99.90
24412;DHT22;12544;46.760;15.942;2022-09-29T02:07:40;13.90;99.90
24412;DHT22;12544;46.760;15.942;2022-09-29T02:10:12;14.00;99.90
24412;DHT22;12544;46.760;15.942;2022-09-29T02:12:40;14.00;99.90
24412;DHT22;12544;46.760;15.942;2022-09-29T02:15:06;14.00;99.90
24412;DHT22;12544;46.760;15.942;2022-09-29T02:17:34;13.90;99.90
24412;DHT22;12544;46.760;15.942;2022-09-29T02:20:00;13.80;99.90
24412;DHT22;12544;46.760;15.942;2022-09-29T02:22:27;13.90;99.90
24412;DHT22;12544;46.760;15.942;2022-09-29T02:24:53;13.90;99.90
24412;DHT22;12544;46.760;15.942;2022-09-29T02:27:20;13.90;99.90
24412;DHT22;12544;46.760;15.942;2022-09-29T02:29:46;13.80;99.90
24412;DHT22;12544;46.760;15.942;2022-09-29T02:32:11;13.80;99.90
24412;DHT22;12544;46.760;15.942;2022-09-29T02:34:38;13.70;99.90
24412;DHT22;12544;46.760;15.942;2022-09-29T02:57:58;12.60;99.90
24412;DHT22;12544;46.760;15.942;2022-09-29T03:00:25;12.50;99.90
24412;DHT22;12544;46.760;15.942;2022-09-29T03:02:50;12.30;99.90
24412;DHT22;12544;46.760;15.942;2022-09-29T03:05:17;12.10;99.90
24412;DHT22;12544;46.760;15.942;2022-09-29T03:07:43;11.90;99.90
24412;DHT22;12544;46.760;15.942;2022-09-29T03:10:09;11.80;99.90
24412;DHT22;12544;46.760;15.942;2022-09-29T03:12:36;11.70;99.90
24412;DHT22;12544;46.760;15.942;2022-09-29T03:15:02;11.60;99.90
24412;DHT22;12544;46.760;15.942;2022-09-29T03:17:28;11.50;99.90
24412;DHT22;12544;46.760;15.942;2022-09-29T03:19:53;11.40;99.90
24412;DHT22;12544;46.760;15.942;2022-09-29T03:22:19;11.30;99.90
24412;DHT22;12544;46.760;15.942;2022-09-29T03:24:44;11.30;99.90
24412;DHT22;12544;46.760;15.942;2022-09-29T03:27:10;11.30;99.90
24412;DHT22;12544;46.760;15.942;2022-09-29T03:29:35;11.40;99.90
24412;DHT22;12544;46.760;15.942;2022-09-29T03:32:01;11.30;99.90
24412;DHT22;12544;46.760;15.942;2022-09-29T03:34:26;11.30;99.90
24412;DHT22;12544;46.760;15.942;2022-09-29T03:36:52;11.30;99.90
24412;DHT22;12544;46.760;15.942;2022-09-29T03:39:25;11.30;99.90
24412;DHT22;12544;46.760;15.942;2022-09-29T03:41:51;11.20;99.90
24412;DHT22;12544;46.760;15.942;2022-09-29T03:44:17;11.20;99.90
24412;DHT22;12544;46.760;15.942;2022-09-29T03:46:42;11.20;99.90
24412;DHT22;12544;46.760;15.942;2022-09-29T03:49:10;11.20;99.90
24412;DHT22;12544;46.760;15.942;2022-09-29T03:51:36;11.20;99.90
24412;DHT22;12544;46.760;15.942;2022-09-29T03:54:02;11.20;99.90
24412;DHT22;12544;46.760;15.942;2022-09-29T03:56:28;11.20;99.90
24412;DHT22;12544;46.760;15.942;2022-09-29T03:58:53;11.10;99.90
24412;DHT22;12544;46.760;15.942;2022-09-29T04:01:19;11.00;99.90
24412;DHT22;12544;46.760;15.942;2022-09-29T04:03:44;11.00;99.90
24412;DHT22;12544;46.760;15.942;2022-09-29T04:06:10;10.90;99.90
24412;DHT22;12544;46.760;15.942;2022-09-29T04:08:37;10.90;99.90
24412;DHT22;12544;46.760;15.942;2022-09-29T04:11:03;10.90;99.90
24412;DHT22;12544;46.760;15.942;2022-09-29T04:13:29;10.80;99.90
24412;DHT22;12544;46.760;15.942;2022-09-29T04:15:58;10.80;99.90
24412;DHT22;12544;46.760;15.942;2022-09-29T04:18:24;10.80;99.90
24412;DHT22;12544;46.760;15.942;2022-09-29T04:20:51;10.90;99.90
24412;DHT22;12544;46.760;15.942;2022-09-29T04:23:18;10.90;99.90
24412;DHT22;12544;46.760;15.942;2022-09-29T04:25:43;10.90;99.90
24412;DHT22;12544;46.760;15.942;2022-09-29T04:28:10;10.90;99.90
24412;DHT22;12544;46.760;15.942;2022-09-29T04:30:35;10.80;99.90
24412;DHT22;12544;46.760;15.942;2022-09-29T04:33:01;10.90;99.90
24412;DHT22;12544;46.760;15.942;2022-09-29T04:35:26;10.80;99.90
24412;DHT22;12544;46.760;15.942;2022-09-29T04:37:53;10.80;99.90
24412;DHT22;12544;46.760;15.942;2022-09-29T04:40:19;10.90;99.90
24412;DHT22;12544;46.760;15.942;2022-09-29T04:42:44;10.80;99.90
24412;DHT22;12544;46.760;15.942;2022-09-29T04:45:10;10.90;99.90
24412;DHT22;12544;46.760;15.942;2022-09-29T04:47:35;11.00;99.90
24412;DHT22;12544;46.760;15.942;2022-09-29T04:50:01;11.00;99.90
24412;DHT22;12544;46.760;15.942;2022-09-29T04:52:26;11.00;99.90
24412;DHT22;12544;46.760;15.942;2022-09-29T04:54:59;10.90;99.90
24412;DHT22;12544;46.760;15.942;2022-09-29T04:57:24;10.90;99.90
24412;DHT22;12544;46.760;15.942;2022-09-29T04:59:50;10.90;99.90
24412;DHT22;12544;46.760;15.942;2022-09-29T05:02:19;11.00;99.90
24412;DHT22;12544;46.760;15.942;2022-09-29T05:04:44;10.90;99.90
24412;DHT22;12544;46.760;15.942;2022-09-29T05:07:12;10.80;99.90
24412;DHT22;12544;46.760;15.942;2022-09-29T05:09:37;10.80;99.90
24412;DHT22;12544;46.760;15.942;2022-09-29T05:12:03;10.90;99.90
24412;DHT22;12544;46.760;15.942;2022-09-29T05:14:28;11.00;99.90
24412;DHT22;12544;46.760;15.942;2022-09-29T05:16:54;11.10;99.90
24412;DHT22;12544;46.760;15.942;2022-09-29T05:19:19;11.10;99.90
24412;DHT22;12544;46.760;15.942;2022-09-29T05:21:45;11.00;99.90
24412;DHT22;12544;46.760;15.942;2022-09-29T05:24:11;11.10;99.90
24412;DHT22;12544;46.760;15.942;2022-09-29T05:26:36;11.10;99.90
24412;DHT22;12544;46.760;15.942;2022-09-29T05:29:02;11.20;99.90
24412;DHT22;12544;46.760;15.942;2022-09-29T05:31:27;11.20;99.90
24412;DHT22;12544;46.760;15.942;2022-09-29T05:33:54;11.20;99.90
24412;DHT22;12544;46.760;15.942;2022-09-29T05:36:20;11.20;99.90
24412;DHT22;12544;46.760;15.942;2022-09-29T05:38:45;11.30;99.90
24412;DHT22;12544;46.760;15.942;2022-09-29T05:41:11;11.20;99.90
24412;DHT22;12544;46.760;15.942;2022-09-29T05:43:37;11.30;99.90
24412;DHT22;12544;46.760;15.942;2022-09-29T05:46:04;11.30;99.90
24412;DHT22;12544;46.760;15.942;2022-09-29T05:48:30;11.30;99.90
24412;DHT22;12544;46.760;15.942;2022-09-29T05:50:56;11.20;99.90
24412;DHT22;12544;46.760;15.942;2022-09-29T05:53:21;11.30;99.90
24412;DHT22;12544;46.760;15.942;2022-09-29T05:55:47;11.20;99.90
24412;DHT22;12544;46.760;15.942;2022-09-29T05:58:13;11.20;99.90
24412;DHT22;12544;46.760;15.942;2022-09-29T06:00:38;11.20;99.90
24412;DHT22;12544;46.760;15.942;2022-09-29T06:03:04;11.20;99.90
24412;DHT22;12544;46.760;15.942;2022-09-29T06:05:30;11.20;99.90
24412;DHT22;12544;46.760;15.942;2022-09-29T06:07:55;11.10;99.90
24412;DHT22;12544;46.760;15.942;2022-09-29T06:10:21;11.00;99.90
24412;DHT22;12544;46.760;15.942;2022-09-29T06:12:46;11.00;99.90
24412;DHT22;12544;46.760;15.942;2022-09-29T06:15:12;11.00;99.90
24412;DHT22;12544;46.760;15.942;2022-09-29T06:17:38;11.00;99.90
24412;DHT22;12544;46.760;15.942;2022-09-29T06:20:04;11.00;99.90
24412;DHT22;12544;46.760;15.942;2022-09-29T06:22:30;11.00;99.90
24412;DHT22;12544;46.760;15.942;2022-09-29T06:24:55;11.00;99.90
24412;DHT22;12544;46.760;15.942;2022-09-29T06:27:21;11.00;99.90
24412;DHT22;12544;46.760;15.942;2022-09-29T06:29:46;11.00;99.90
24412;DHT22;12544;46.760;15.942;2022-09-29T06:32:12;11.10;99.90
24412;DHT22;12544;46.760;15.942;2022-09-29T06:34:38;11.10;99.90
24412;DHT22;12544;46.760;15.942;2022-09-29T06:37:24;11.10;99.90
24412;DHT22;12544;46.760;15.942;2022-09-29T06:39:59;11.30;99.90
24412;DHT22;12544;46.760;15.942;2022-09-29T06:42:24;11.30;99.90
24412;DHT22;12544;46.760;15.942;2022-09-29T06:44:50;11.10;99.90
24412;DHT22;12544;46.760;15.942;2022-09-29T06:47:16;11.20;99.90
24412;DHT22;12544;46.760;15.942;2022-09-29T06:49:41;11.10;99.90
24412;DHT22;12544;46.760;15.942;2022-09-29T06:52:07;11.20;99.90
24412;DHT22;12544;46.760;15.942;2022-09-29T06:54:34;11.30;99.90
24412;DHT22;12544;46.760;15.942;2022-09-29T06:56:59;11.40;99.90
24412;DHT22;12544;46.760;15.942;2022-09-29T06:59:25;11.40;99.90
24412;DHT22;12544;46.760;15.942;2022-09-29T07:01:51;11.40;99.90
24412;DHT22;12544;46.760;15.942;2022-09-29T07:04:16;11.50;99.90
24412;DHT22;12544;46.760;15.942;2022-09-29T07:06:43;11.50;99.90
24412;DHT22;12544;46.760;15.942;2022-09-29T07:09:10;11.50;99.90
24412;DHT22;12544;46.760;15.942;2022-09-29T07:11:40;11.60;99.90
24412;DHT22;12544;46.760;15.942;2022-09-29T07:14:06;11.60;99.90
24412;DHT22;12544;46.760;15.942;2022-09-29T07:16:31;11.70;99.90
24412;DHT22;12544;46.760;15.942;2022-09-29T07:18:57;11.80;99.90
24412;DHT22;12544;46.760;15.942;2022-09-29T07:21:22;11.70;99.90
24412;DHT22;12544;46.760;15.942;2022-09-29T07:23:48;11.80;99.90
24412;DHT22;12544;46.760;15.942;2022-09-29T07:26:14;11.80;99.90
24412;DHT22;12544;46.760;15.942;2022-09-29T07:28:41;11.90;99.90
24412;DHT22;12544;46.760;15.942;2022-09-29T07:31:08;11.90;99.90
24412;DHT22;12544;46.760;15.942;2022-09-29T07:33:34;12.00;99.90
24412;DHT22;12544;46.760;15.942;2022-09-29T07:36:00;12.00;99.90
24412;DHT22;12544;46.760;15.942;2022-09-29T07:38:26;12.00;99.90
24412;DHT22;12544;46.760;15.942;2022-09-29T07:40:52;12.00;99.90
24412;DHT22;12544;46.760;15.942;2022-09-29T07:43:17;12.00;99.90
24412;DHT22;12544;46.760;15.942;2022-09-29T07:45:46;12.10;99.90
24412;DHT22;12544;46.760;15.942;2022-09-29T07:48:13;12.10;99.90
24412;DHT22;12544;46.760;15.942;2022-09-29T07:50:39;12.10;99.90
24412;DHT22;12544;46.760;15.942;2022-09-29T07:53:04;12.10;99.90
24412;DHT22;12544;46.760;15.942;2022-09-29T07:55:30;12.10;99.90
24412;DHT22;12544;46.760;15.942;2022-09-29T07:57:55;12.00;99.90
24412;DHT22;12544;46.760;15.942;2022-09-29T08:00:21;12.00;99.90
24412;DHT22;12544;46.760;15.942;2022-09-29T08:02:46;12.00;99.90
24412;DHT22;12544;46.760;15.942;2022-09-29T08:05:12;12.00;99.90
24412;DHT22;12544;46.760;15.942;2022-09-29T08:07:37;12.00;99.90
24412;DHT22;12544;46.760;15.942;2022-09-29T08:10:03;12.00;99.90
24412;DHT22;12544;46.760;15.942;2022-09-29T08:12:29;12.10;99.90
24412;DHT22;12544;46.760;15.942;2022-09-29T08:14:55;12.10;99.90
24412;DHT22;12544;46.760;15.942;2022-09-29T08:17:20;12.10;99.90
24412;DHT22;12544;46.760;15.942;2022-09-29T08:19:46;12.10;99.90
24412;DHT22;12544;46.760;15.942;2022-09-29T08:22:12;12.10;99.90
24412;DHT22;12544;46.760;15.942;2022-09-29T08:24:38;12.20;99.90
24412;DHT22;12544;46.760;15.942;2022-09-29T08:27:05;12.10;99.90
24412;DHT22;12544;46.760;15.942;2022-09-29T08:29:31;12.00;99.90
24412;DHT22;12544;46.760;15.942;2022-09-29T08:31:57;12.00;99.90
24412;DHT22;12544;46.760;15.942;2022-09-29T08:34:22;12.00;99.90
24412;DHT22;12544;46.760;15.942;2022-09-29T08:36:48;12.00;99.90
24412;DHT22;12544;46.760;15.942;2022-09-29T08:39:13;12.10;99.90
24412;DHT22;12544;46.760;15.942;2022-09-29T08:41:50;12.00;99.90
24412;DHT22;12544;46.760;15.942;2022-09-29T08:49:13;12.00;99.90
24412;DHT22;12544;46.760;15.942;2022-09-29T08:51:42;11.90;99.90
24412;DHT22;12544;46.760;15.942;2022-09-29T08:54:21;11.80;99.90
24412;DHT22;12544;46.760;15.942;2022-09-29T08:56:48;11.70;99.90
24412;DHT22;12544;46.760;15.942;2022-09-29T08:59:14;11.70;99.90
24412;DHT22;12544;46.760;15.942;2022-09-29T09:11:55;11.60;99.90
24412;DHT22;12544;46.760;15.942;2022-09-29T09:14:30;11.60;99.90
24412;DHT22;12544;46.760;15.942;2022-09-29T09:24:32;11.60;99.90
24412;DHT22;12544;46.760;15.942;2022-09-29T09:27:02;11.60;99.90
24412;DHT22;12544;46.760;15.942;2022-09-29T09:29:38;11.50;99.90
24412;DHT22;12544;46.760;15.942;2022-09-29T09:32:08;11.50;99.90
24412;DHT22;12544;46.760;15.942;2022-09-29T09:37:07;11.40;99.90
24412;DHT22;12544;46.760;15.942;2022-09-29T09:42:10;11.50;99.90
24412;DHT22;12544;46.760;15.942;2022-09-29T09:44:46;11.50;99.90
24412;DHT22;12544;46.760;15.942;2022-09-29T09:49:48;11.50;99.90
24412;DHT22;12544;46.760;15.942;2022-09-29T09:54:55;11.50;99.90
24412;DHT22;12544;46.760;15.942;2022-09-29T10:02:29;11.30;99.90
24412;DHT22;12544;46.760;15.942;2022-09-29T10:04:56;11.40;99.90
24412;DHT22;12544;46.760;15.942;2022-09-29T10:07:26;11.40;99.90
24412;DHT22;12544;46.760;15.942;2022-09-29T10:09:52;11.40;99.90
24412;DHT22;12544;46.760;15.942;2022-09-29T10:12:19;11.50;99.90
24412;DHT22;12544;46.760;15.942;2022-09-29T10:17:24;11.60;99.90
24412;DHT22;12544;46.760;15.942;2022-09-29T10:19:53;11.60;99.90
24412;DHT22;12544;46.760;15.942;2022-09-29T10:22:19;11.70;99.90
24412;DHT22;12544;46.760;15.942;2022-09-29T10:24:45;11.80;99.90
24412;DHT22;12544;46.760;15.942;2022-09-29T10:27:11;11.90;99.90
24412;DHT22;12544;46.760;15.942;2022-09-29T10:29:42;12.00;99.90
24412;DHT22;12544;46.760;15.942;2022-09-29T10:32:12;12.00;99.90
24412;DHT22;12544;46.760;15.942;2022-09-29T10:34:52;12.10;99.90
24412;DHT22;12544;46.760;15.942;2022-09-29T10:37:23;12.20;99.90
24412;DHT22;12544;46.760;15.942;2022-09-29T10:39:50;12.20;99.90
24412;DHT22;12544;46.760;15.942;2022-09-29T10:45:09;12.20;99.90
24412;DHT22;12544;46.760;15.942;2022-09-29T10:47:36;12.20;99.90
24412;DHT22;12544;46.760;15.942;2022-09-29T10:50:12;12.20;99.90
24412;DHT22;12544;46.760;15.942;2022-09-29T10:55:22;12.30;99.90
24412;DHT22;12544;46.760;15.942;2022-09-29T10:57:48;12.40;99.90
24412;DHT22;12544;46.760;15.942;2022-09-29T11:02:50;12.40;99.90
24412;DHT22;12544;46.760;15.942;2022-09-29T11:05:18;12.40;99.90
24412;DHT22;12544;46.760;15.942;2022-09-29T11:07:45;12.50;99.90
24412;DHT22;12544;46.760;15.942;2022-09-29T11:10:30;12.50;99.90
24412;DHT22;12544;46.760;15.942;2022-09-29T11:12:56;12.50;99.90
24412;DHT22;12544;46.760;15.942;2022-09-29T11:15:29;12.50;99.90
24412;DHT22;12544;46.760;15.942;2022-09-29T11:18:04;12.50;99.90
24412;DHT22;12544;46.760;15.942;2022-09-29T11:20:41;12.50;99.90
24412;DHT22;12544;46.760;15.942;2022-09-29T11:23:09;12.50;99.90
24412;DHT22;12544;46.760;15.942;2022-09-29T11:35:53;12.60;99.90
24412;DHT22;12544;46.760;15.942;2022-09-29T11:45:59;12.80;99.90
24412;DHT22;12544;46.760;15.942;2022-09-29T11:51:00;12.80;99.90
24412;DHT22;12544;46.760;15.942;2022-09-29T12:04:09;12.70;99.90
24412;DHT22;12544;46.760;15.942;2022-09-29T12:06:47;12.80;99.90
24412;DHT22;12544;46.760;15.942;2022-09-29T12:14:48;13.00;99.90
24412;DHT22;12544;46.760;15.942;2022-09-29T12:17:15;13.10;99.90
24412;DHT22;12544;46.760;15.942;2022-09-29T12:19:43;13.20;99.90
24412;DHT22;12544;46.760;15.942;2022-09-29T12:22:10;13.20;99.90
24412;DHT22;12544;46.760;15.942;2022-09-29T12:24:42;13.20;99.90
24412;DHT22;12544;46.760;15.942;2022-09-29T12:27:31;13.20;99.90
24412;DHT22;12544;46.760;15.942;2022-09-29T12:34:51;13.60;99.90
24412;DHT22;12544;46.760;15.942;2022-09-29T12:37:26;13.60;99.90
24412;DHT22;12544;46.760;15.942;2022-09-29T12:39:58;13.70;99.90
24412;DHT22;12544;46.760;15.942;2022-09-29T12:52:32;13.80;99.90
24412;DHT22;12544;46.760;15.942;2022-09-29T12:55:03;13.80;99.90
24412;DHT22;12544;46.760;15.942;2022-09-29T12:57:36;13.70;99.90
24412;DHT22;12544;46.760;15.942;2022-09-29T13:00:13;13.70;99.90
24412;DHT22;12544;46.760;15.942;2022-09-29T13:10:21;13.70;99.90
24412;DHT22;12544;46.760;15.942;2022-09-29T13:18:11;13.70;99.90
24412;DHT22;12544;46.760;15.942;2022-09-29T13:30:48;13.30;99.90
24412;DHT22;12544;46.760;15.942;2022-09-29T13:33:18;13.30;99.90
24412;DHT22;12544;46.760;15.942;2022-09-29T13:35:46;13.30;99.90
24412;DHT22;12544;46.760;15.942;2022-09-29T13:40:41;13.40;99.90
24412;DHT22;12544;46.760;15.942;2022-09-29T13:48:52;13.30;99.90
24412;DHT22;12544;46.760;15.942;2022-09-29T13:51:21;13.20;99.90
24412;DHT22;12544;46.760;15.942;2022-09-29T13:53:47;13.20;99.90
24412;DHT22;12544;46.760;15.942;2022-09-29T13:56:19;13.20;99.90
24412;DHT22;12544;46.760;15.942;2022-09-29T14:01:10;13.20;99.90
24412;DHT22;12544;46.760;15.942;2022-09-29T14:03:41;13.30;99.90
24412;DHT22;12544;46.760;15.942;2022-09-29T14:06:17;13.20;99.90
24412;DHT22;12544;46.760;15.942;2022-09-29T14:09:04;13.20;99.90
24412;DHT22;12544;46.760;15.942;2022-09-29T14:11:31;13.20;99.90
24412;DHT22;12544;46.760;15.942;2022-09-29T14:14:08;13.20;99.90
24412;DHT22;12544;46.760;15.942;2022-09-29T14:16:43;13.20;99.90
24412;DHT22;12544;46.760;15.942;2022-09-29T14:19:18;13.30;99.90
24412;DHT22;12544;46.760;15.942;2022-09-29T14:21:56;13.30;99.90
24412;DHT22;12544;46.760;15.942;2022-09-29T14:30:32;13.30;99.90
24412;DHT22;12544;46.760;15.942;2022-09-29T14:35:14;13.30;99.90
24412;DHT22;12544;46.760;15.942;2022-09-29T14:37:40;13.30;99.90
24412;DHT22;12544;46.760;15.942;2022-09-29T14:40:06;13.30;99.90
24412;DHT22;12544;46.760;15.942;2022-09-29T14:43:10;13.30;99.90
24412;DHT22;12544;46.760;15.942;2022-09-29T14:45:43;13.30;99.90
24412;DHT22;12544;46.760;15.942;2022-09-29T14:48:33;13.30;99.90
24412;DHT22;12544;46.760;15.942;2022-09-29T14:51:25;13.30;99.90
24412;DHT22;12544;46.760;15.942;2022-09-29T15:02:01;13.20;99.90
24412;DHT22;12544;46.760;15.942;2022-09-29T15:04:29;13.20;99.90
24412;DHT22;12544;46.760;15.942;2022-09-29T15:06:55;13.20;99.90
24412;DHT22;12544;46.760;15.942;2022-09-29T15:09:21;13.10;99.90
24412;DHT22;12544;46.760;15.942;2022-09-29T15:19:21;13.00;99.90
24412;DHT22;12544;46.760;15.942;2022-09-29T15:21:54;13.00;99.90
24412;DHT22;12544;46.760;15.942;2022-09-29T15:24:34;12.90;99.90
24412;DHT22;12544;46.760;15.942;2022-09-29T15:27:03;12.80;99.90
24412;DHT22;12544;46.760;15.942;2022-09-29T15:29:28;12.80;99.90
24412;DHT22;12544;46.760;15.942;2022-09-29T15:31:54;12.70;99.90
24412;DHT22;12544;46.760;15.942;2022-09-29T15:34:21;12.60;99.90
24412;DHT22;12544;46.760;15.942;2022-09-29T15:36:49;12.60;99.90
24412;DHT22;12544;46.760;15.942;2022-09-29T15:41:47;12.60;99.90
24412;DHT22;12544;46.760;15.942;2022-09-29T15:44:25;12.50;99.90
24412;DHT22;12544;46.760;15.942;2022-09-29T15:46:55;12.40;99.90
24412;DHT22;12544;46.760;15.942;2022-09-29T15:49:22;12.40;99.90
24412;DHT22;12544;46.760;15.942;2022-09-29T15:54:33;12.50;99.90
24412;DHT22;12544;46.760;15.942;2022-09-29T15:57:00;12.50;99.90
24412;DHT22;12544;46.760;15.942;2022-09-29T15:59:54;12.50;99.90
24412;DHT22;12544;46.760;15.942;2022-09-29T16:04:45;12.50;99.90
24412;DHT22;12544;46.760;15.942;2022-09-29T16:07:16;12.60;99.90
24412;DHT22;12544;46.760;15.942;2022-09-29T16:09:43;12.60;99.90
24412;DHT22;12544;46.760;15.942;2022-09-29T16:12:11;12.60;99.90
24412;DHT22;12544;46.760;15.942;2022-09-29T16:14:37;12.60;99.90
24412;DHT22;12544;46.760;15.942;2022-09-29T16:17:03;12.60;99.90
24412;DHT22;12544;46.760;15.942;2022-09-29T16:19:32;12.50;99.90
24412;DHT22;12544;46.760;15.942;2022-09-29T16:24:36;12.50;99.90
24412;DHT22;12544;46.760;15.942;2022-09-29T16:27:03;12.50;99.90
24412;DHT22;12544;46.760;15.942;2022-09-29T16:29:30;12.50;99.90
24412;DHT22;12544;46.760;15.942;2022-09-29T16:31:56;12.40;99.90
24412;DHT22;12544;46.760;15.942;2022-09-29T16:39:25;12.30;99.90
24412;DHT22;12544;46.760;15.942;2022-09-29T16:41:53;12.20;99.90
24412;DHT22;12544;46.760;15.942;2022-09-29T16:44:22;12.20;99.90
24412;DHT22;12544;46.760;15.942;2022-09-29T16:47:02;12.20;99.90
24412;DHT22;12544;46.760;15.942;2022-09-29T16:49:35;12.10;99.90
24412;DHT22;12544;46.760;15.942;2022-09-29T16:54:31;12.00;99.90
24412;DHT22;12544;46.760;15.942;2022-09-29T16:59:42;12.00;99.90
24412;DHT22;12544;46.760;15.942;2022-09-29T17:02:11;12.00;99.90
24412;DHT22;12544;46.760;15.942;2022-09-29T17:04:36;12.00;99.90
24412;DHT22;12544;46.760;15.942;2022-09-29T17:07:08;12.10;99.90
24412;DHT22;12544;46.760;15.942;2022-09-29T17:09:35;12.10;99.90
24412;DHT22;12544;46.760;15.942;2022-09-29T17:12:00;12.10;99.90
24412;DHT22;12544;46.760;15.942;2022-09-29T17:14:26;12.00;99.90
24412;DHT22;12544;46.760;15.942;2022-09-29T17:16:55;12.00;99.90
24412;DHT22;12544;46.760;15.942;2022-09-29T17:19:21;12.00;99.90
24412;DHT22;12544;46.760;15.942;2022-09-29T17:21:46;11.90;99.90
24412;DHT22;12544;46.760;15.942;2022-09-29T17:24:12;12.00;99.90
24412;DHT22;12544;46.760;15.942;2022-09-29T17:26:41;12.00;99.90
24412;DHT22;12544;46.760;15.942;2022-09-29T17:29:25;12.00;99.90
24412;DHT22;12544;46.760;15.942;2022-09-29T17:31:51;12.00;99.90
24412;DHT22;12544;46.760;15.942;2022-09-29T17:34:16;12.00;99.90
24412;DHT22;12544;46.760;15.942;2022-09-29T17:36:46;12.10;99.90
24412;DHT22;12544;46.760;15.942;2022-09-29T17:39:12;12.10;99.90
24412;DHT22;12544;46.760;15.942;2022-09-29T17:41:37;12.10;99.90
24412;DHT22;12544;46.760;15.942;2022-09-29T17:44:04;12.10;99.90
24412;DHT22;12544;46.760;15.942;2022-09-29T17:46:31;12.10;99.90
24412;DHT22;12544;46.760;15.942;2022-09-29T17:48:56;12.10;99.90
24412;DHT22;12544;46.760;15.942;2022-09-29T17:51:22;12.10;99.90
24412;DHT22;12544;46.760;15.942;2022-09-29T17:53:47;12.10;99.90
24412;DHT22;12544;46.760;15.942;2022-09-29T17:56:18;12.00;99.90
24412;DHT22;12544;46.760;15.942;2022-09-29T17:58:46;12.00;99.90
24412;DHT22;12544;46.760;15.942;2022-09-29T18:01:12;12.00;99.90
24412;DHT22;12544;46.760;15.942;2022-09-29T18:03:37;12.00;99.90
24412;DHT22;12544;46.760;15.942;2022-09-29T18:06:04;12.10;99.90
24412;DHT22;12544;46.760;15.942;2022-09-29T18:08:29;12.10;99.90
24412;DHT22;12544;46.760;15.942;2022-09-29T18:10:56;12.10;99.90
24412;DHT22;12544;46.760;15.942;2022-09-29T18:13:23;12.20;99.90
24412;DHT22;12544;46.760;15.942;2022-09-29T18:15:48;12.20;99.90
24412;DHT22;12544;46.760;15.942;2022-09-29T18:18:15;12.20;99.90
24412;DHT22;12544;46.760;15.942;2022-09-29T18:20:41;12.20;99.90
24412;DHT22;12544;46.760;15.942;2022-09-29T18:23:09;12.10;99.90
24412;DHT22;12544;46.760;15.942;2022-09-29T18:25:35;12.20;99.90
24412;DHT22;12544;46.760;15.942;2022-09-29T18:28:01;12.20;99.90
24412;DHT22;12544;46.760;15.942;2022-09-29T18:30:28;12.20;99.90
24412;DHT22;12544;46.760;15.942;2022-09-29T18:32:55;12.20;99.90
24412;DHT22;12544;46.760;15.942;2022-09-29T18:35:27;12.20;99.90
24412;DHT22;12544;46.760;15.942;2022-09-29T18:37:53;12.20;99.90
24412;DHT22;12544;46.760;15.942;2022-09-29T18:40:18;12.30;99.90
24412;DHT22;12544;46.760;15.942;2022-09-29T18:42:46;12.30;99.90
24412;DHT22;12544;46.760;15.942;2022-09-29T18:45:13;12.20;99.90
24412;DHT22;12544;46.760;15.942;2022-09-29T18:47:40;12.10;99.90
24412;DHT22;12544;46.760;15.942;2022-09-29T18:50:10;12.10;99.90
24412;DHT22;12544;46.760;15.942;2022-09-29T18:52:37;12.10;99.90
24412;DHT22;12544;46.760;15.942;2022-09-29T18:55:02;12.00;99.90
24412;DHT22;12544;46.760;15.942;2022-09-29T18:57:28;12.10;99.90